Time;durP1;ratioP1;P1;durP2;ratioP2;P2;SDS_P1;SDS_P2;PMS_P1;PMS_P2;Temp;Humidity;BMP_temperature;BMP_pressure;BME280_temperature;BME280_humidity;BME280_pressure;Samples;Min_cycle;Max_cycle;Signal;HPM_P1;HPM_P2
2023/04/17 00:02:21;;;;;;;52.63;25.88;;;10.90;99.90;;;;;;5096928;28;20032;-69
2023/04/17 00:04:47;;;;;;;58.42;28.17;;;11.00;99.90;;;;;;5096964;28;20036;-70
2023/04/17 00:07:13;;;;;;;62.58;29.55;;;11.00;99.90;;;;;;5095533;28;20101;-70
2023/04/17 00:09:38;;;;;;;69.95;31.00;;;11.00;99.90;;;;;;5095539;28;20055;-70
2023/04/17 00:12:04;;;;;;;56.00;27.30;;;11.00;99.90;;;;;;5095501;28;20047;-70
2023/04/17 00:14:30;;;;;;;64.13;29.15;;;10.90;99.90;;;;;;5096909;28;20028;-70
2023/04/17 00:16:55;;;;;;;62.25;28.58;;;11.00;99.90;;;;;;5096818;28;20311;-70
2023/04/17 00:19:21;;;;;;;62.47;29.08;;;11.10;99.90;;;;;;5096784;28;20036;-70
2023/04/17 00:21:47;;;;;;;56.30;27.13;;;11.20;99.90;;;;;;5096781;28;20039;-70
2023/04/17 00:24:13;;;;;;;64.75;29.33;;;11.20;99.90;;;;;;5096683;28;20033;-70
2023/04/17 00:26:39;;;;;;;63.35;29.40;;;11.30;99.90;;;;;;5096673;28;20067;-70
2023/04/17 00:29:05;;;;;;;64.47;30.15;;;11.10;99.90;;;;;;5096273;28;20041;-69
2023/04/17 00:31:30;;;;;;;62.92;28.85;;;11.00;99.90;;;;;;5096677;28;20131;-70
2023/04/17 00:33:57;;;;;;;72.65;31.52;;;11.00;99.90;;;;;;5096641;28;20043;-70
2023/04/17 00:36:23;;;;;;;69.30;30.58;;;11.00;99.90;;;;;;5096636;28;20047;-69
2023/04/17 00:38:49;;;;;;;56.40;29.10;;;11.00;99.90;;;;;;5096590;28;20040;-70
2023/04/17 00:41:15;;;;;;;56.85;29.33;;;10.80;99.90;;;;;;5095630;28;20094;-70
2023/04/17 00:43:41;;;;;;;53.28;26.75;;;10.90;99.90;;;;;;5096579;28;20051;-69
2023/04/17 00:46:07;;;;;;;56.33;27.67;;;11.00;99.90;;;;;;5096447;28;20364;-70
2023/04/17 00:48:34;;;;;;;53.22;28.45;;;11.10;99.90;;;;;;5096541;28;20036;-69
2023/04/17 00:51:02;;;;;;;59.63;27.73;;;11.20;99.90;;;;;;5095223;28;20124;-69
2023/04/17 00:53:31;;;;;;;54.90;26.65;;;11.20;99.90;;;;;;5096209;28;20434;-69
2023/04/17 00:55:59;;;;;;;53.38;27.73;;;11.00;99.90;;;;;;5096412;28;20036;-69
2023/04/17 00:58:26;;;;;;;48.90;26.85;;;11.10;99.90;;;;;;5099909;28;20048;-70
2023/04/17 01:00:52;;;;;;;51.38;26.35;;;11.10;99.90;;;;;;5099958;28;20421;-70
2023/04/17 01:03:18;;;;;;;57.60;28.42;;;11.20;99.90;;;;;;5100192;28;20047;-70
2023/04/17 01:05:48;;;;;;;62.05;28.10;;;11.20;99.90;;;;;;5100122;28;20377;-70
2023/04/17 01:08:14;;;;;;;62.70;29.63;;;11.00;99.90;;;;;;5099563;28;20117;-69
2023/04/17 01:10:40;;;;;;;73.68;32.53;;;10.90;99.90;;;;;;5098567;28;20056;-70
2023/04/17 01:13:06;;;;;;;63.40;29.73;;;11.00;99.90;;;;;;5099061;28;20115;-70
2023/04/17 01:15:33;;;;;;;61.97;29.60;;;11.00;99.90;;;;;;5098711;28;20036;-70
2023/04/17 01:17:59;;;;;;;69.85;30.45;;;11.10;99.90;;;;;;5099694;28;20036;-70
2023/04/17 01:20:29;;;;;;;66.53;29.85;;;11.10;99.90;;;;;;5099560;28;20047;-70
2023/04/17 01:22:59;;;;;;;64.10;29.80;;;11.10;99.90;;;;;;5098614;28;20056;-70
2023/04/17 01:25:26;;;;;;;62.10;27.50;;;11.10;99.90;;;;;;5098447;28;20080;-70
2023/04/17 01:27:52;;;;;;;73.25;32.25;;;10.90;99.90;;;;;;5099785;28;20334;-70
2023/04/17 01:30:17;;;;;;;72.10;31.92;;;10.80;99.90;;;;;;5098985;28;20051;-70
2023/04/17 01:32:43;;;;;;;68.07;29.20;;;10.80;99.90;;;;;;5099655;28;20063;-70
2023/04/17 01:35:09;;;;;;;74.03;30.63;;;10.80;99.90;;;;;;5099578;28;20479;-69
2023/04/17 01:37:35;;;;;;;88.38;32.83;;;10.80;99.90;;;;;;5099560;28;20040;-70
2023/04/17 01:40:01;;;;;;;69.43;29.85;;;10.80;99.90;;;;;;5099497;28;20111;-70
2023/04/17 01:42:27;;;;;;;76.40;31.63;;;10.80;99.90;;;;;;5099486;28;20040;-70
2023/04/17 01:44:52;;;;;;;81.03;32.50;;;10.90;99.90;;;;;;5098068;28;20036;-70
2023/04/17 01:47:18;;;;;;;78.00;31.75;;;10.90;99.90;;;;;;5099394;28;20047;-69
2023/04/17 01:49:44;;;;;;;68.05;30.25;;;10.80;99.90;;;;;;5099311;28;20047;-70
2023/04/17 01:52:09;;;;;;;67.25;30.10;;;10.80;99.90;;;;;;5098969;28;20089;-69
2023/04/17 01:54:35;;;;;;;68.45;29.92;;;11.00;99.90;;;;;;5099204;28;20051;-70
2023/04/17 01:57:01;;;;;;;67.00;30.02;;;11.00;99.90;;;;;;5099192;28;20333;-70
2023/04/17 01:59:26;;;;;;;78.05;32.20;;;10.90;99.90;;;;;;5098740;28;20439;-70
2023/04/17 02:01:53;;;;;;;72.18;30.60;;;10.90;99.90;;;;;;5099060;28;20044;-70
2023/04/17 02:04:18;;;;;;;71.43;31.33;;;10.80;99.90;;;;;;5099062;28;20145;-70
2023/04/17 02:06:44;;;;;;;69.65;31.35;;;10.90;99.90;;;;;;5098396;28;20079;-70
2023/04/17 02:09:10;;;;;;;73.78;30.77;;;10.80;99.90;;;;;;5098238;28;20048;-70
2023/04/17 02:11:37;;;;;;;72.25;30.85;;;10.80;99.90;;;;;;5098929;28;20093;-70
2023/04/17 02:14:02;;;;;;;60.25;28.10;;;10.90;99.90;;;;;;5098854;28;20044;-70
2023/04/17 02:16:30;;;;;;;64.10;28.17;;;10.90;99.90;;;;;;5098815;28;20032;-70
2023/04/17 02:18:56;;;;;;;69.70;30.20;;;10.90;99.90;;;;;;5098701;28;20169;-70
2023/04/17 02:21:22;;;;;;;72.97;29.35;;;10.80;99.90;;;;;;5098663;28;20036;-70
2023/04/17 02:23:48;;;;;;;65.25;29.20;;;10.80;99.90;;;;;;5098618;28;20036;-70
2023/04/17 02:26:13;;;;;;;76.13;31.45;;;10.80;99.90;;;;;;5098567;28;20102;-70
2023/04/17 02:28:42;;;;;;;75.05;30.23;;;10.80;99.90;;;;;;5096858;28;20035;-70
2023/04/17 02:31:07;;;;;;;65.88;29.55;;;10.60;99.90;;;;;;5098543;28;20043;-70
2023/04/17 02:33:37;;;;;;;71.60;29.73;;;10.60;99.90;;;;;;5098462;28;20032;-70
2023/04/17 02:36:04;;;;;;;60.55;27.25;;;10.70;99.90;;;;;;5098058;28;20138;-70
2023/04/17 02:38:30;;;;;;;64.90;28.85;;;10.70;99.90;;;;;;5098055;28;20040;-70
2023/04/17 02:40:56;;;;;;;55.47;26.33;;;10.70;99.90;;;;;;5098524;28;20043;-70
2023/04/17 02:43:22;;;;;;;61.05;27.20;;;10.80;99.90;;;;;;5098297;28;20039;-70
2023/04/17 02:45:48;;;;;;;61.47;27.88;;;10.90;99.90;;;;;;5098116;28;20173;-70
2023/04/17 02:48:14;;;;;;;57.40;26.90;;;11.00;99.90;;;;;;5098162;28;20182;-70
2023/04/17 02:50:40;;;;;;;56.00;26.55;;;10.80;99.90;;;;;;5098160;28;20132;-70
2023/04/17 02:53:05;;;;;;;61.35;27.85;;;10.80;99.90;;;;;;5098061;28;20039;-70
2023/04/17 02:55:31;;;;;;;54.22;25.77;;;10.80;99.90;;;;;;5097013;28;20039;-70
2023/04/17 02:57:57;;;;;;;54.72;26.55;;;10.80;99.90;;;;;;5097980;28;20036;-70
2023/04/17 03:00:23;;;;;;;52.75;26.17;;;10.80;99.90;;;;;;5097566;28;20443;-70
2023/04/17 03:02:48;;;;;;;46.40;24.40;;;10.80;99.90;;;;;;5097659;28;20448;-70
2023/04/17 03:05:15;;;;;;;58.75;26.70;;;10.90;99.90;;;;;;5097845;28;20040;-70
2023/04/17 03:07:41;;;;;;;63.38;28.08;;;10.90;99.90;;;;;;5097796;28;20032;-70
2023/04/17 03:10:08;;;;;;;61.03;28.00;;;10.90;99.90;;;;;;5097338;28;20052;-70
2023/04/17 03:12:33;;;;;;;55.40;25.25;;;10.90;99.90;;;;;;5097723;28;20039;-70
2023/04/17 03:14:59;;;;;;;46.40;23.50;;;10.90;99.90;;;;;;5097762;28;20040;-70
2023/04/17 03:17:25;;;;;;;53.78;25.02;;;11.00;99.90;;;;;;5097345;28;20040;-70
2023/04/17 03:19:51;;;;;;;52.28;24.80;;;10.90;99.90;;;;;;5096736;28;20040;-70
2023/04/17 03:22:16;;;;;;;53.58;25.20;;;10.90;99.90;;;;;;5097605;28;20185;-70
2023/04/17 03:24:42;;;;;;;54.70;26.33;;;10.90;99.90;;;;;;5097480;28;20511;-70
2023/04/17 03:27:08;;;;;;;49.53;23.92;;;10.80;99.90;;;;;;5097432;28;20471;-70
2023/04/17 03:29:34;;;;;;;48.20;23.52;;;10.70;99.90;;;;;;5097035;28;20372;-70
2023/04/17 03:32:00;;;;;;;51.00;24.15;;;10.70;99.90;;;;;;5097167;28;20051;-70
2023/04/17 03:34:27;;;;;;;49.90;23.02;;;10.60;99.90;;;;;;5097396;28;20032;-70
2023/04/17 03:36:52;;;;;;;55.13;25.38;;;10.50;99.90;;;;;;5097438;28;20102;-70
2023/04/17 03:39:18;;;;;;;53.58;25.13;;;10.50;99.90;;;;;;5097263;28;20047;-70
2023/04/17 03:41:44;;;;;;;59.55;26.58;;;10.40;99.90;;;;;;5097244;28;20085;-70
2023/04/17 03:44:09;;;;;;;53.58;24.08;;;10.40;99.90;;;;;;5097236;28;20032;-70
2023/04/17 03:46:36;;;;;;;67.22;26.83;;;10.40;99.90;;;;;;5097099;28;20048;-70
2023/04/17 03:49:01;;;;;;;59.38;25.77;;;10.40;99.90;;;;;;5097159;28;20040;-70
2023/04/17 03:51:27;;;;;;;57.70;24.98;;;10.40;99.90;;;;;;5096830;28;20047;-70
2023/04/17 03:53:53;;;;;;;60.60;25.33;;;10.40;99.90;;;;;;5097061;28;20073;-70
2023/04/17 03:56:18;;;;;;;51.75;24.30;;;10.40;99.90;;;;;;5096761;28;20035;-70
2023/04/17 03:58:44;;;;;;;57.03;25.38;;;10.40;99.90;;;;;;5095510;28;20054;-70
2023/04/17 04:01:11;;;;;;;72.57;27.48;;;10.50;99.90;;;;;;5097033;28;20032;-70
2023/04/17 04:03:37;;;;;;;54.10;24.20;;;10.60;99.90;;;;;;5096968;28;20161;-70
2023/04/17 04:06:03;;;;;;;55.67;25.27;;;10.60;99.90;;;;;;5096828;28;20123;-70
2023/04/17 04:08:28;;;;;;;57.95;25.73;;;10.50;99.90;;;;;;5096463;28;20054;-70
2023/04/17 04:10:54;;;;;;;71.07;27.88;;;10.50;99.90;;;;;;5096913;28;20044;-70
2023/04/17 04:13:20;;;;;;;53.75;25.67;;;10.50;99.90;;;;;;5096823;28;20043;-70
2023/04/17 04:15:45;;;;;;;64.07;27.20;;;10.50;99.90;;;;;;5096809;28;20044;-71
2023/04/17 04:18:11;;;;;;;58.83;26.00;;;10.50;99.90;;;;;;5096766;28;20089;-70
2023/04/17 04:20:37;;;;;;;65.55;26.48;;;10.60;99.90;;;;;;5096784;28;20119;-70
2023/04/17 04:23:03;;;;;;;64.30;26.63;;;10.70;99.90;;;;;;5096753;28;20180;-70
2023/04/17 04:25:29;;;;;;;63.75;27.25;;;10.70;99.90;;;;;;5096670;28;20413;-70
2023/04/17 04:27:55;;;;;;;56.67;25.92;;;10.70;99.90;;;;;;5096712;28;20040;-70
2023/04/17 04:30:24;;;;;;;62.97;27.52;;;10.80;99.90;;;;;;5096943;28;20093;-70
2023/04/17 04:32:50;;;;;;;60.58;24.75;;;10.80;99.90;;;;;;5100865;28;20042;-70
2023/04/17 04:35:16;;;;;;;50.67;22.98;;;10.90;99.90;;;;;;5099378;28;20334;-70
2023/04/17 04:37:45;;;;;;;55.20;23.50;;;10.80;99.90;;;;;;5100689;28;20040;-71
2023/04/17 04:40:13;;;;;;;51.15;23.40;;;10.80;99.90;;;;;;5100695;28;20036;-70
2023/04/17 04:42:40;;;;;;;51.88;23.85;;;10.80;99.90;;;;;;5100717;28;20123;-70
2023/04/17 04:45:08;;;;;;;53.97;23.17;;;10.80;99.90;;;;;;5100305;28;20039;-69
2023/04/17 04:47:34;;;;;;;51.70;23.92;;;10.70;99.90;;;;;;5100576;28;20175;-70
2023/04/17 04:50:00;;;;;;;70.72;25.75;;;10.70;99.90;;;;;;5100527;28;20040;-70
2023/04/17 04:52:26;;;;;;;50.28;23.58;;;10.70;99.90;;;;;;5100453;28;20055;-70
2023/04/17 04:54:52;;;;;;;60.97;24.95;;;10.60;99.90;;;;;;5100400;28;20039;-70
2023/04/17 04:57:18;;;;;;;59.00;26.00;;;10.70;99.90;;;;;;5100395;28;20040;-70
2023/04/17 04:59:43;;;;;;;58.67;27.27;;;10.60;99.90;;;;;;5099598;28;20043;-70
2023/04/17 05:02:09;;;;;;;56.20;25.73;;;10.60;99.90;;;;;;5100255;28;20083;-70
2023/04/17 05:04:34;;;;;;;58.85;27.65;;;10.50;99.90;;;;;;5100253;28;20048;-70
2023/04/17 05:07:00;;;;;;;67.18;27.00;;;10.30;99.90;;;;;;5099124;28;20124;-70
2023/04/17 05:09:26;;;;;;;52.20;25.95;;;10.40;99.90;;;;;;5099547;28;20056;-70
2023/04/17 05:11:55;;;;;;;48.58;25.50;;;10.50;99.90;;;;;;5100121;28;20109;-70
2023/04/17 05:14:21;;;;;;;47.30;25.13;;;10.50;99.90;;;;;;5100031;28;20040;-70
2023/04/17 05:16:47;;;;;;;47.25;23.90;;;10.50;99.90;;;;;;5099969;28;20325;-70
2023/04/17 05:19:12;;;;;;;37.90;22.17;;;10.40;99.90;;;;;;5098589;28;20047;-70
2023/04/17 05:21:38;;;;;;;38.72;22.65;;;10.50;99.90;;;;;;5099937;28;20044;-70
2023/04/17 05:24:04;;;;;;;47.08;23.73;;;10.50;99.90;;;;;;5099604;28;20089;-70
2023/04/17 05:26:29;;;;;;;56.75;25.77;;;10.60;99.90;;;;;;5098347;28;20131;-71
2023/04/17 05:28:55;;;;;;;50.58;25.58;;;10.80;99.90;;;;;;5099325;28;20047;-70
2023/04/17 05:31:21;;;;;;;71.32;29.30;;;10.80;99.90;;;;;;5099658;28;20363;-70
2023/04/17 05:33:47;;;;;;;45.63;23.33;;;10.80;99.90;;;;;;5099358;28;20114;-70
2023/04/17 05:36:12;;;;;;;46.42;24.13;;;10.80;99.90;;;;;;5099609;28;20078;-70
2023/04/17 05:38:38;;;;;;;49.22;24.33;;;10.70;99.90;;;;;;5099272;28;20044;-70
2023/04/17 05:41:06;;;;;;;50.95;24.95;;;10.80;99.90;;;;;;5099590;28;20036;-70
2023/04/17 05:43:32;;;;;;;54.90;25.00;;;10.90;99.90;;;;;;5098274;28;20040;-70
2023/04/17 05:45:58;;;;;;;52.13;25.67;;;10.90;99.90;;;;;;5099377;28;20039;-70
2023/04/17 05:48:23;;;;;;;50.35;24.60;;;11.00;99.90;;;;;;5099393;28;20043;-70
2023/04/17 05:50:49;;;;;;;52.08;25.70;;;11.00;99.90;;;;;;5099382;28;20090;-70
2023/04/17 05:53:15;;;;;;;56.03;25.92;;;11.10;99.90;;;;;;5099204;28;20039;-70
2023/04/17 05:55:41;;;;;;;51.95;24.50;;;11.00;99.90;;;;;;5098973;28;20085;-70
2023/04/17 05:58:06;;;;;;;56.50;25.95;;;10.90;99.90;;;;;;5098869;28;20062;-70
2023/04/17 06:00:32;;;;;;;50.58;25.40;;;11.00;99.90;;;;;;5098760;28;20123;-70
2023/04/17 06:03:00;;;;;;;63.30;26.92;;;10.70;99.90;;;;;;5099114;28;20036;-70
2023/04/17 06:05:26;;;;;;;55.35;25.33;;;10.70;99.90;;;;;;5098928;28;20048;-68
2023/04/17 06:07:52;;;;;;;49.17;24.30;;;10.70;99.90;;;;;;5098048;28;20040;-71
2023/04/17 06:10:18;;;;;;;55.95;26.23;;;10.80;99.90;;;;;;5098639;28;20055;-67
2023/04/17 06:12:44;;;;;;;48.53;23.88;;;10.80;99.90;;;;;;5098925;28;20456;-68
2023/04/17 06:15:10;;;;;;;64.30;27.17;;;10.80;99.90;;;;;;5098869;28;20032;-67
2023/04/17 06:17:37;;;;;;;50.95;26.10;;;10.90;99.90;;;;;;5098574;28;20036;-67
2023/04/17 06:20:07;;;;;;;44.97;24.60;;;10.90;99.90;;;;;;5097736;28;20302;-67
2023/04/17 06:22:32;;;;;;;57.42;26.05;;;11.00;99.90;;;;;;5098739;28;20036;-67
2023/04/17 06:24:58;;;;;;;50.13;25.08;;;11.00;99.90;;;;;;5098124;28;20059;-67
2023/04/17 06:27:24;;;;;;;52.70;26.67;;;10.90;99.90;;;;;;5097571;28;20127;-68
2023/04/17 06:29:49;;;;;;;51.10;26.45;;;11.00;99.90;;;;;;5097745;28;20394;-68
2023/04/17 06:32:15;;;;;;;60.92;27.63;;;11.10;99.90;;;;;;5096870;28;20075;-67
2023/04/17 06:34:41;;;;;;;53.30;25.88;;;11.10;99.90;;;;;;5097220;28;20048;-67
2023/04/17 06:37:07;;;;;;;61.00;27.05;;;11.20;99.90;;;;;;5097831;28;20221;-66
2023/04/17 06:39:33;;;;;;;50.95;26.25;;;11.20;99.90;;;;;;5097717;28;20036;-67
2023/04/17 06:41:58;;;;;;;59.13;29.42;;;11.20;99.90;;;;;;5095861;28;20024;-68
2023/04/17 06:44:24;;;;;;;49.47;26.30;;;11.30;99.90;;;;;;5097665;28;20375;-67
2023/04/17 06:46:51;;;;;;;50.75;26.73;;;11.30;99.90;;;;;;5097939;28;20127;-66
2023/04/17 06:49:17;;;;;;;46.80;26.73;;;11.40;99.90;;;;;;5097966;28;20032;-66
2023/04/17 06:51:44;;;;;;;48.20;26.17;;;11.40;99.90;;;;;;5098156;28;20306;-66
2023/04/17 06:54:10;;;;;;;47.63;23.63;;;11.50;99.90;;;;;;5096762;28;20039;-67
2023/04/17 06:56:36;;;;;;;42.95;24.30;;;11.60;99.90;;;;;;5096783;28;20429;-66
2023/04/17 06:59:02;;;;;;;38.67;22.60;;;11.70;99.90;;;;;;5097596;28;20044;-66
2023/04/17 07:01:30;;;;;;;40.58;23.38;;;11.70;99.90;;;;;;5097746;28;20036;-66
2023/04/17 07:03:56;;;;;;;39.00;23.30;;;11.60;99.90;;;;;;5097975;28;20044;-67
2023/04/17 07:06:23;;;;;;;44.00;24.17;;;11.70;99.90;;;;;;5097839;28;20371;-66
2023/04/17 07:08:49;;;;;;;42.10;23.88;;;11.90;99.90;;;;;;5096374;28;20337;-67
2023/04/17 07:11:15;;;;;;;44.63;24.20;;;11.70;99.90;;;;;;5097851;28;20138;-66
2023/04/17 07:13:40;;;;;;;40.85;23.50;;;11.90;99.90;;;;;;5097758;28;20106;-66
2023/04/17 07:16:07;;;;;;;50.55;26.98;;;12.00;99.90;;;;;;5097418;28;20036;-71
2023/04/17 07:18:33;;;;;;;44.22;26.20;;;11.80;99.90;;;;;;5097683;28;20119;-67
2023/04/17 07:20:58;;;;;;;38.88;23.52;;;11.70;99.90;;;;;;5097599;28;20182;-67
2023/04/17 07:23:24;;;;;;;43.83;23.88;;;11.90;99.90;;;;;;5097313;28;20053;-67
2023/04/17 07:25:50;;;;;;;48.15;25.67;;;12.00;99.90;;;;;;5097449;28;20040;-67
2023/04/17 07:28:16;;;;;;;50.03;24.80;;;12.20;99.90;;;;;;5097208;28;20040;-67
2023/04/17 07:30:42;;;;;;;40.92;23.75;;;12.20;99.90;;;;;;5097127;28;20032;-67
2023/04/17 07:33:08;;;;;;;43.13;24.02;;;12.20;99.90;;;;;;5097416;28;20105;-67
2023/04/17 07:35:34;;;;;;;38.05;22.65;;;12.20;99.90;;;;;;5097416;28;20087;-66
2023/04/17 07:38:02;;;;;;;46.53;23.80;;;12.10;99.90;;;;;;5097061;28;20418;-66
2023/04/17 07:40:29;;;;;;;39.95;23.65;;;12.20;99.90;;;;;;5097319;28;20048;-66
2023/04/17 07:42:55;;;;;;;36.60;22.17;;;12.20;99.90;;;;;;5097267;28;20040;-67
2023/04/17 07:45:21;;;;;;;38.65;22.08;;;12.40;99.90;;;;;;5097130;28;20058;-68
2023/04/17 07:47:47;;;;;;;34.65;22.23;;;12.50;99.90;;;;;;5097200;28;20044;-68
2023/04/17 07:50:13;;;;;;;36.58;22.15;;;12.60;99.90;;;;;;5096886;28;20047;-68
2023/04/17 07:52:39;;;;;;;35.13;21.50;;;12.80;99.90;;;;;;5097103;28;20085;-69
2023/04/17 07:55:05;;;;;;;33.17;21.70;;;12.90;99.90;;;;;;5097019;28;20044;-67
2023/04/17 07:57:31;;;;;;;36.95;22.52;;;13.00;99.90;;;;;;5097033;28;20051;-67
2023/04/17 07:59:57;;;;;;;32.65;19.55;;;13.00;99.90;;;;;;5095320;28;20044;-67
2023/04/17 08:02:23;;;;;;;38.75;22.77;;;12.90;99.90;;;;;;5096766;28;20044;-68
2023/04/17 08:04:51;;;;;;;30.90;19.65;;;12.80;99.90;;;;;;5096609;28;20111;-67
2023/04/17 08:07:19;;;;;;;34.47;20.60;;;12.90;99.90;;;;;;5096469;28;20075;-67
2023/04/17 08:09:45;;;;;;;34.20;21.95;;;13.10;99.90;;;;;;5096655;28;20047;-67
2023/04/17 08:12:11;;;;;;;29.80;19.95;;;13.10;99.90;;;;;;5096899;28;20307;-67
2023/04/17 08:14:38;;;;;;;36.85;21.52;;;13.10;99.90;;;;;;5096543;28;20043;-68
2023/04/17 08:17:06;;;;;;;30.92;20.65;;;13.10;99.90;;;;;;5096848;28;20048;-68
2023/04/17 08:19:31;;;;;;;30.90;20.15;;;13.10;99.90;;;;;;5096606;28;20040;-67
2023/04/17 08:22:02;;;;;;;28.90;20.30;;;13.20;99.90;;;;;;5096819;28;20036;-67
2023/04/17 08:24:29;;;;;;;31.83;20.48;;;13.20;99.90;;;;;;5096824;28;20028;-67
2023/04/17 08:26:55;;;;;;;33.08;21.20;;;13.10;99.90;;;;;;5096649;28;20079;-68
2023/04/17 08:29:21;;;;;;;31.40;20.42;;;13.20;99.90;;;;;;5096364;28;20442;-67
2023/04/17 08:31:46;;;;;;;31.92;19.90;;;13.30;99.90;;;;;;5096701;28;20032;-67
2023/04/17 08:34:12;;;;;;;31.00;20.80;;;13.40;99.90;;;;;;5096686;28;20040;-67
2023/04/17 08:36:38;;;;;;;33.50;19.73;;;13.50;99.90;;;;;;5096698;28;20077;-67
2023/04/17 08:39:04;;;;;;;31.63;21.42;;;13.10;99.90;;;;;;5096633;28;20047;-67
2023/04/17 08:41:36;;;;;;;30.45;20.30;;;13.20;99.90;;;;;;5096615;28;20093;-68
2023/04/17 08:44:02;;;;;;;33.97;19.98;;;13.30;99.90;;;;;;5096427;28;20044;-68
2023/04/17 08:46:30;;;;;;;26.60;18.80;;;13.50;99.90;;;;;;5096271;28;20452;-67
2023/04/17 08:48:56;;;;;;;29.30;20.05;;;13.70;99.90;;;;;;5096569;28;20059;-66
2023/04/17 08:51:26;;;;;;;26.40;17.10;;;13.70;99.90;;;;;;5096546;28;20410;-67
2023/04/17 08:53:53;;;;;;;25.90;17.70;;;13.60;99.90;;;;;;5096558;28;20043;-67
2023/04/17 08:56:19;;;;;;;33.20;19.02;;;13.80;99.90;;;;;;5096512;28;20063;-67
2023/04/17 08:58:44;;;;;;;28.73;18.85;;;14.00;99.90;;;;;;5096104;28;20422;-68
2023/04/17 09:01:14;;;;;;;25.77;18.52;;;14.10;99.90;;;;;;5096151;28;20050;-68
2023/04/17 09:03:47;;;;;;;24.40;16.65;;;14.20;99.90;;;;;;5095218;28;20080;-75
2023/04/17 09:06:14;;;;;;;26.50;17.23;;;14.10;99.90;;;;;;5095105;28;20048;-70
2023/04/17 09:09:00;;;;;;;29.42;18.33;;;14.00;99.90;;;;;;5096196;28;20033;-68
2023/04/17 09:11:26;;;;;;;28.92;18.20;;;13.80;99.90;;;;;;5096397;28;20040;-68
2023/04/17 09:13:52;;;;;;;27.63;18.25;;;14.00;99.90;;;;;;5096039;28;20479;-67
2023/04/17 09:16:19;;;;;;;24.95;16.25;;;14.20;99.90;;;;;;5095307;28;20036;-68
2023/04/17 09:18:46;;;;;;;28.30;16.38;;;14.50;99.90;;;;;;5097707;28;20090;-67
2023/04/17 09:21:15;;;;;;;23.92;15.10;;;14.60;99.90;;;;;;5099994;28;20050;-68
2023/04/17 09:23:54;;;;;;;27.10;17.33;;;14.90;99.90;;;;;;5099759;28;20114;-68
2023/04/17 09:26:26;;;;;;;23.02;15.10;;;15.10;99.90;;;;;;5099286;28;20040;-67
2023/04/17 09:29:03;;;;;;;22.98;14.30;;;15.10;99.90;;;;;;5099845;28;20127;-68
2023/04/17 09:31:33;;;;;;;24.33;15.77;;;15.20;99.90;;;;;;5099793;28;20036;-67
2023/04/17 09:34:08;;;;;;;26.05;15.00;;;15.30;99.90;;;;;;5098743;28;20037;-68
2023/04/17 09:36:37;;;;;;;24.15;14.60;;;15.40;99.90;;;;;;5099715;28;20044;-68
2023/04/17 09:39:24;;;;;;;20.23;13.82;;;15.50;99.90;;;;;;5081412;28;20093;-68
2023/04/17 09:42:00;;;;;;;22.60;13.23;;;15.80;99.90;;;;;;5097870;28;20098;-68
2023/04/17 09:44:27;;;;;;;;;;;16.30;99.90;;;;;;5100033;28;20101;-67
2023/04/17 09:46:53;;;;;;;;;;;16.40;99.90;;;;;;5099935;28;20202;-68
2023/04/17 09:49:24;;;;;;;21.87;13.07;;;16.60;99.90;;;;;;5099250;28;19923;-68
2023/04/17 09:51:51;;;;;;;21.75;13.10;;;16.50;99.90;;;;;;5098182;28;20040;-68
2023/04/17 09:54:19;;;;;;;18.60;12.75;;;16.20;99.90;;;;;;5098775;28;20452;-68
2023/04/17 09:56:48;;;;;;;21.15;13.10;;;16.40;99.90;;;;;;5098215;28;20044;-68
2023/04/17 09:59:15;;;;;;;20.13;12.55;;;16.80;99.90;;;;;;5098581;28;20468;-68
2023/04/17 10:01:41;;;;;;;23.40;13.50;;;17.00;99.90;;;;;;5081219;28;20044;-67
2023/04/17 10:04:07;;;;;;;22.48;14.60;;;16.20;99.90;;;;;;5080929;28;20123;-67
2023/04/17 10:06:34;;;;;;;19.48;12.85;;;16.10;99.90;;;;;;5097656;28;20128;-68
2023/04/17 10:09:02;;;;;;;23.48;14.00;;;16.20;99.90;;;;;;5098601;28;20453;-67
2023/04/17 10:11:35;;;;;;;20.15;13.05;;;16.50;99.90;;;;;;5098816;28;20048;-69
2023/04/17 10:14:16;;;;;;;27.85;14.48;;;16.60;99.90;;;;;;5098882;28;20119;-70
2023/04/17 10:16:42;;;;;;;20.70;13.95;;;16.10;99.90;;;;;;5098697;28;20052;-70
2023/04/17 10:19:34;;;;;;;21.83;14.88;;;15.50;99.90;;;;;;5098807;28;20116;-70
2023/04/17 10:22:16;;;;;;;22.48;15.25;;;15.10;99.90;;;;;;5098815;28;20043;-71
2023/04/17 10:25:11;;;;;;;25.27;15.52;;;14.80;99.90;;;;;;5098767;28;20115;-70
2023/04/17 10:27:40;;;;;;;22.50;13.65;;;14.80;99.90;;;;;;5098433;28;20046;-70
2023/04/17 10:30:13;;;;;;;23.58;14.63;;;14.90;99.90;;;;;;5096683;28;20429;-70
2023/04/17 10:32:45;;;;;;;23.40;14.82;;;14.90;99.90;;;;;;5098585;28;20036;-70
2023/04/17 10:35:16;;;;;;;25.70;14.30;;;15.00;99.90;;;;;;5098370;28;20105;-71
2023/04/17 10:37:51;;;;;;;27.13;15.75;;;15.30;99.90;;;;;;5097200;28;20088;-70
2023/04/17 10:40:22;;;;;;;35.90;15.18;;;15.50;99.90;;;;;;5098450;28;20036;-70
2023/04/17 10:43:24;;;;;;;20.88;14.38;;;15.30;99.90;;;;;;5098422;28;20044;-70
2023/04/17 10:46:00;;;;;;;31.10;15.68;;;15.10;99.90;;;;;;5098325;28;20066;-71
2023/04/17 10:48:31;;;;;;;21.85;14.68;;;15.20;99.90;;;;;;5098332;28;20122;-70
2023/04/17 10:50:59;;;;;;;23.13;15.00;;;15.30;99.90;;;;;;5097203;28;20333;-70
2023/04/17 10:53:44;;;;;;;21.48;14.75;;;15.40;99.90;;;;;;5097947;28;20042;-70
2023/04/17 10:56:16;;;;;;;22.27;15.23;;;15.50;99.90;;;;;;5098019;28;20036;-73
2023/04/17 10:59:03;;;;;;;24.95;14.82;;;15.60;99.90;;;;;;5097066;28;20364;-69
2023/04/17 11:01:46;;;;;;;24.38;14.60;;;15.90;99.90;;;;;;5098075;28;20089;-69
2023/04/17 11:04:21;;;;;;;21.02;14.68;;;15.70;99.90;;;;;;5097700;28;20418;-68
2023/04/17 11:06:47;;;;;;;25.10;14.37;;;16.20;99.90;;;;;;5097715;28;20421;-69
2023/04/17 11:09:14;;;;;;;21.27;14.60;;;16.30;99.90;;;;;;5097534;28;20082;-67
2023/04/17 11:11:42;;;;;;;23.33;14.88;;;16.40;99.90;;;;;;5097903;28;20307;-68
2023/04/17 11:14:13;;;;;;;26.23;14.90;;;16.60;99.90;;;;;;5097770;28;20063;-67
2023/04/17 11:16:41;;;;;;;22.45;14.88;;;16.70;99.90;;;;;;5097716;28;20083;-68
2023/04/17 11:19:08;;;;;;;27.35;15.95;;;16.80;99.90;;;;;;5096377;28;20044;-69
2023/04/17 11:21:39;;;;;;;25.63;14.93;;;16.90;99.90;;;;;;5079691;28;20032;-70
2023/04/17 11:24:05;;;;;;;20.67;14.65;;;16.70;99.90;;;;;;5097617;28;20036;-72
2023/04/17 11:26:30;;;;;;;20.73;14.82;;;16.90;99.90;;;;;;5096517;28;20059;-70
2023/04/17 11:28:56;;;;;;;22.85;14.07;;;17.30;99.90;;;;;;5097212;28;20048;-72
2023/04/17 11:31:21;;;;;;;20.23;14.40;;;17.50;99.90;;;;;;5097131;28;20044;-72
2023/04/17 11:33:47;;;;;;;19.63;12.60;;;17.80;99.90;;;;;;5097682;28;20058;-72
2023/04/17 11:36:13;;;;;;;21.00;13.32;;;18.40;99.90;;;;;;5097297;28;20303;-72
2023/04/17 11:38:48;;;;;;;20.55;13.38;;;18.50;99.90;;;;;;5097360;28;20038;-70
2023/04/17 11:41:13;;;;;;;21.35;14.23;;;18.90;99.90;;;;;;5096600;28;20111;-67
2023/04/17 11:43:39;;;;;;;19.63;14.30;;;19.10;99.90;;;;;;5097037;28;20468;-68
2023/04/17 11:46:05;;;;;;;19.60;13.50;;;18.90;99.90;;;;;;5097388;28;20048;-68
2023/04/17 11:48:31;;;;;;;23.27;13.48;;;18.90;99.90;;;;;;5096975;28;20036;-68
2023/04/17 11:51:02;;;;;;;21.08;13.10;;;19.10;99.90;;;;;;5097163;28;20090;-70
2023/04/17 11:53:28;;;;;;;21.42;13.38;;;19.20;99.90;;;;;;5097239;28;20043;-74
2023/04/17 11:56:19;;;;;;;24.95;13.40;;;18.90;99.90;;;;;;5097164;28;20055;-73
2023/04/17 11:58:48;;;;;;;19.58;13.23;;;18.40;99.90;;;;;;5095820;28;20054;-68
2023/04/17 12:01:15;;;;;;;22.92;13.70;;;18.10;99.90;;;;;;5095370;28;20040;-68
2023/04/17 12:03:41;;;;;;;24.42;14.65;;;18.50;99.90;;;;;;5097067;28;20032;-68
2023/04/17 12:06:07;;;;;;;29.25;13.65;;;18.80;99.90;;;;;;5095671;28;20444;-68
2023/04/17 12:08:49;;;;;;;20.90;14.13;;;19.50;99.90;;;;;;5096931;28;20044;-68
2023/04/17 12:11:23;;;;;;;23.63;13.60;;;19.60;99.90;;;;;;5096987;28;20380;-69
2023/04/17 12:13:50;;;;;;;20.83;15.45;;;19.80;99.90;;;;;;5097136;28;20040;-70
2023/04/17 12:16:16;;;;;;;21.08;14.02;;;19.00;99.90;;;;;;5078697;28;20063;-68
2023/04/17 12:18:41;;;;;;;24.23;13.93;;;19.10;99.90;;;;;;5096865;28;20321;-69
2023/04/17 12:21:07;;;;;;;20.17;14.20;;;19.10;99.90;;;;;;5095518;28;20086;-68
2023/04/17 12:23:33;;;;;;;23.02;14.05;;;19.10;99.90;;;;;;5096591;28;20047;-68
2023/04/17 12:25:58;;;;;;;20.48;14.13;;;19.30;99.90;;;;;;5096793;28;20333;-68
2023/04/17 12:28:24;;;;;;;20.83;14.40;;;19.50;99.90;;;;;;5096743;28;20428;-68
2023/04/17 12:30:50;;;;;;;21.83;14.15;;;19.50;99.90;;;;;;5096382;28;20123;-68